createdAt,value
2022-09-25T00:02:08.969Z,96100.84
2022-09-25T00:04:39.639Z,96105.22
2022-09-25T00:07:08.399Z,96099.47
2022-09-25T00:09:36.729Z,96099.47
2022-09-25T00:12:05.878Z,96099.19
2022-09-25T00:14:34.746Z,96106.56
2022-09-25T00:17:03.758Z,96100.28
2022-09-25T00:19:50.099Z,96094.84
2022-09-25T00:22:21.356Z,96089.41
2022-09-25T00:24:50.825Z,96096.47
2022-09-25T00:27:19.311Z,96087.47
2022-09-25T00:29:48.903Z,96082.06
2022-09-25T00:32:17.264Z,96082.59
2022-09-25T00:34:47.162Z,96089.41
2022-09-25T00:37:15.466Z,96083.41
2022-09-25T00:39:46.036Z,96086.41
2022-09-25T00:42:14.532Z,96091.56
2022-09-25T00:44:56.954Z,96086.66
2022-09-25T00:47:42.890Z,96082.31
2022-09-25T00:50:32.816Z,96074.97
2022-09-25T00:53:23.042Z,96068.41
2022-09-25T00:55:55.497Z,96068.16
2022-09-25T00:58:26.954Z,96064.91
2022-09-25T01:00:56.064Z,96062.97
2022-09-25T01:03:25.992Z,96059.41
2022-09-25T01:05:56.579Z,96056.19
2022-09-25T01:08:28.268Z,96059.44
2022-09-25T01:10:59.366Z,96049.09
2022-09-25T01:13:29.799Z,96054.53
2022-09-25T01:16:06.138Z,96050.19
2022-09-25T01:18:45.205Z,96051.25
2022-09-25T01:21:23.250Z,96051.81
2022-09-25T01:24:12.445Z,96054.50
2022-09-25T01:27:21.385Z,96055.31
2022-09-25T01:29:57.565Z,96058.31
2022-09-25T01:32:34.595Z,96046.03
2022-09-25T01:35:09.715Z,96047.41
2022-09-25T01:37:44.637Z,96053.41
2022-09-25T01:40:18.817Z,96045.25
2022-09-25T01:42:53.034Z,96042.22
2022-09-25T01:45:28.922Z,96039.22
2022-09-25T01:48:01.415Z,96039.81
2022-09-25T01:50:35.301Z,96034.88
2022-09-25T01:53:09.311Z,96035.72
2022-09-25T01:55:45.070Z,96028.34
2022-09-25T01:58:18.207Z,96039.53
2022-09-25T02:00:54.022Z,96043.59
2022-09-25T02:03:27.620Z,96041.69
2022-09-25T02:06:00.857Z,96031.38
2022-09-25T02:08:32.697Z,96044.13
2022-09-25T02:11:04.020Z,96031.09
2022-09-25T02:13:40.711Z,96033.53
2022-09-25T02:16:13.455Z,96033.81
2022-09-25T02:19:00.228Z,96034.91
2022-09-25T02:21:38.343Z,96029.97
2022-09-25T02:24:14.422Z,96039.25
2022-09-25T02:26:43.152Z,96046.88
2022-09-25T02:29:13.239Z,96035.97
2022-09-25T02:31:46.102Z,96035.16
2022-09-25T02:34:15.543Z,96041.16
2022-09-25T02:36:44.925Z,96057.50
2022-09-25T02:39:18.511Z,96051.78
2022-09-25T02:42:10.654Z,96050.16
2022-09-25T02:44:51.267Z,96044.69
2022-09-25T02:47:32.739Z,96048.81
2022-09-25T02:50:10.370Z,96042.25
2022-09-25T02:52:48.571Z,96040.63
2022-09-25T02:55:28.272Z,96051.53
2022-09-25T02:58:01.272Z,96049.34
2022-09-25T03:00:30.999Z,96043.59
2022-09-25T03:03:03.961Z,96055.56
2022-09-25T03:05:33.052Z,96053.41
2022-09-25T03:08:19.273Z,96059.13
2022-09-25T03:10:48.878Z,96053.69
2022-09-25T03:13:19.736Z,96052.88
2022-09-25T03:15:52.794Z,96054.50
2022-09-25T03:18:22.616Z,96050.16
2022-09-25T03:20:51.722Z,96040.06
2022-09-25T03:23:20.551Z,96055.06
2022-09-25T03:25:50.494Z,96052.59
2022-09-25T03:28:19.575Z,96047.16
2022-09-25T03:31:01.302Z,96048.53
2022-09-25T03:33:36.477Z,96042.84
2022-09-25T03:36:09.978Z,96023.22
2022-09-25T03:38:38.781Z,96028.94
2022-09-25T03:41:10.137Z,96024.03
2022-09-25T03:43:40.294Z,96016.94
2022-09-25T03:46:12.181Z,96002.75
2022-09-25T03:48:43.311Z,96007.69
2022-09-25T03:51:12.258Z,96011.50
2022-09-25T03:53:42.023Z,96015.31
2022-09-25T03:56:12.901Z,96007.41
2022-09-25T03:58:42.422Z,96009.31
2022-09-25T04:01:11.764Z,96012.84
2022-09-25T04:03:47.756Z,96009.84
2022-09-25T04:06:18.410Z,96009.84
2022-09-25T04:08:48.930Z,95998.41
2022-09-25T04:11:19.218Z,96001.41
2022-09-25T04:13:48.630Z,96012.56
2022-09-25T04:16:18.318Z,96010.13
2022-09-25T04:18:48.109Z,96007.66
2022-09-25T04:21:17.648Z,96001.13
2022-09-25T04:24:06.584Z,96003.31
2022-09-25T04:26:36.192Z,96010.38
2022-09-25T04:29:04.789Z,96010.94
2022-09-25T04:31:34.158Z,96015.28
2022-09-25T04:34:03.001Z,96014.75
2022-09-25T04:36:32.005Z,96006.88
2022-09-25T04:39:00.279Z,96006.31
2022-09-25T04:41:29.438Z,96006.03
2022-09-25T04:43:57.755Z,96002.22
2022-09-25T04:46:27.005Z,95996.25
2022-09-25T04:48:55.358Z,96001.13
2022-09-25T04:51:25.924Z,95988.63
2022-09-25T04:53:54.660Z,95991.88
2022-09-25T04:56:23.174Z,95985.34
2022-09-25T04:58:51.896Z,95990.81
2022-09-25T05:01:21.683Z,95990.81
2022-09-25T05:03:54.135Z,95991.31
2022-09-25T05:06:22.982Z,95995.69
2022-09-25T05:08:53.515Z,96007.38
2022-09-25T05:11:22.970Z,96004.38
2022-09-25T05:13:51.819Z,96004.13
2022-09-25T05:16:21.592Z,96005.22
2022-09-25T05:18:50.038Z,96004.38
2022-09-25T05:21:18.879Z,96010.94
2022-09-25T05:23:47.358Z,96009.03
2022-09-25T05:26:17.370Z,96019.09
2022-09-25T05:28:50.690Z,96016.66
2022-09-25T05:31:19.369Z,96019.09
2022-09-25T05:33:48.746Z,96019.63
2022-09-25T05:36:18.800Z,96025.34
2022-09-25T05:38:48.663Z,96013.94
2022-09-25T05:41:19.160Z,96029.19
2022-09-25T05:43:48.096Z,96031.38
2022-09-25T05:46:16.991Z,96029.16
2022-09-25T05:48:46.407Z,96026.16
2022-09-25T05:51:15.552Z,96033.25
2022-09-25T05:53:44.464Z,96024.25
2022-09-25T05:56:12.755Z,96041.41
2022-09-25T05:58:43.126Z,96037.06
2022-09-25T06:01:11.773Z,96038.97
2022-09-25T06:03:40.085Z,96039.78
2022-09-25T06:06:09.204Z,96046.88
2022-09-25T06:08:37.490Z,96049.31
2022-09-25T06:11:08.213Z,96041.44
2022-09-25T06:13:37.014Z,96041.16
2022-09-25T06:16:15.485Z,96037.59
2022-09-25T06:18:44.345Z,96041.44
2022-09-25T06:21:13.652Z,96040.31
2022-09-25T06:23:44.272Z,96031.06
2022-09-25T06:26:12.612Z,96022.66
2022-09-25T06:28:41.302Z,96030.53
2022-09-25T06:31:10.968Z,96033.78
2022-09-25T06:33:39.809Z,96022.66
2022-09-25T06:36:08.190Z,96022.91
2022-09-25T06:38:37.246Z,96019.09
2022-09-25T06:41:06.607Z,96012.59
2022-09-25T06:43:35.758Z,96012.03
2022-09-25T06:46:04.677Z,96013.41
2022-09-25T06:48:34.348Z,96004.97
2022-09-25T06:51:03.305Z,96009.88
2022-09-25T06:53:31.664Z,96012.31
2022-09-25T06:56:01.427Z,96015.31
2022-09-25T06:58:31.877Z,96006.88
2022-09-25T07:01:00.181Z,96008.78
2022-09-25T07:03:46.836Z,96010.66
2022-09-25T07:06:18.823Z,96010.66
2022-09-25T07:08:49.431Z,96006.03
2022-09-25T07:11:20.337Z,96012.56
2022-09-25T07:13:55.574Z,96012.84
2022-09-25T07:16:25.604Z,95997.88
2022-09-25T07:18:55.870Z,96001.94
2022-09-25T07:21:27.759Z,96011.78
2022-09-25T07:23:58.964Z,96013.13
2022-09-25T07:26:29.876Z,96022.69
2022-09-25T07:29:00.920Z,96025.63
2022-09-25T07:31:31.892Z,96025.09
2022-09-25T07:34:02.920Z,96029.44
2022-09-25T07:36:33.392Z,96029.72
2022-09-25T07:39:02.095Z,96023.44
2022-09-25T07:41:30.406Z,96029.19
2022-09-25T07:46:49.097Z,96027.56
2022-09-25T07:49:18.387Z,96008.50
2022-09-25T07:51:48.535Z,96019.13
2022-09-25T07:54:16.836Z,96025.66
2022-09-25T07:56:47.087Z,96027.28
2022-09-25T07:59:15.760Z,96031.09
2022-09-25T08:01:47.285Z,96031.09
2022-09-25T08:04:19.943Z,96031.91
2022-09-25T08:06:50.225Z,96027.81
2022-09-25T08:09:18.553Z,96028.09
2022-09-25T08:11:47.832Z,96037.59
2022-09-25T08:14:16.447Z,96034.63
2022-09-25T08:16:48.067Z,96034.63
2022-09-25T08:19:18.392Z,96022.91
2022-09-25T08:21:47.315Z,96031.63
2022-09-25T08:24:17.379Z,96034.88
2022-09-25T08:26:47.461Z,96031.34
2022-09-25T08:29:16.367Z,96033.25
2022-09-25T08:31:44.770Z,96036.78
2022-09-25T08:34:39.621Z,96040.09
2022-09-25T08:37:04.644Z,96041.16
2022-09-25T08:39:34.257Z,96033.78
2022-09-25T08:42:04.264Z,96035.41
2022-09-25T08:44:38.329Z,96034.84
2022-09-25T08:47:31.942Z,96031.31
2022-09-25T08:50:05.614Z,96033.75
2022-09-25T08:52:36.378Z,96029.34
2022-09-25T08:55:13.939Z,96024.13
2022-09-25T08:58:05.578Z,96023.03
2022-09-25T09:00:34.089Z,96015.63
2022-09-25T09:03:02.862Z,96012.31
2022-09-25T09:05:35.151Z,96012.03
2022-09-25T09:08:06.764Z,96014.94
2022-09-25T09:10:42.194Z,96017.94
2022-09-25T09:13:19.645Z,96025.59
2022-09-25T09:15:54.356Z,96019.88
2022-09-25T09:18:25.076Z,96014.38
2022-09-25T09:20:57.777Z,96019.28
2022-09-25T09:23:34.239Z,96022.56
2022-09-25T09:26:07.274Z,96019.28
2022-09-25T09:28:57.083Z,96020.09
2022-09-25T09:31:32.037Z,96020.94
2022-09-25T09:34:17.007Z,96019.34
2022-09-25T09:36:52.935Z,96020.44
2022-09-25T09:39:28.375Z,96025.34
2022-09-25T09:42:06.797Z,96018.25
2022-09-25T09:44:51.313Z,96018.25
2022-09-25T09:47:40.390Z,96014.13
2022-09-25T09:50:41.815Z,96019.84
2022-09-25T09:53:21.060Z,96016.00
2022-09-25T09:55:54.271Z,96009.72
2022-09-25T09:58:29.784Z,96015.69
2022-09-25T10:01:15.955Z,96008.84
2022-09-25T10:03:57.117Z,96005.56
2022-09-25T10:06:31.323Z,96007.72
2022-09-25T10:09:00.382Z,96006.34
2022-09-25T10:11:32.659Z,96009.63
2022-09-25T10:14:05.846Z,96004.69
2022-09-25T10:16:35.229Z,96008.22
2022-09-25T10:19:08.195Z,96001.44
2022-09-25T10:21:42.811Z,95998.16
2022-09-25T10:24:11.778Z,96001.13
2022-09-25T10:26:41.569Z,96001.13
2022-09-25T10:29:28.459Z,96005.97
2022-09-25T10:32:01.360Z,96001.38
2022-09-25T10:34:31.273Z,96008.09
2022-09-25T10:37:22.281Z,96006.44
2022-09-25T10:40:03.135Z,96006.09
2022-09-25T10:42:37.651Z,95996.56
2022-09-25T10:45:31.282Z,96003.91
2022-09-25T10:48:17.899Z,95994.31
2022-09-25T10:50:47.944Z,96000.47
2022-09-25T10:53:34.194Z,95994.03
2022-09-25T10:56:06.260Z,96001.78
2022-09-25T10:58:41.285Z,96004.81
2022-09-25T11:01:13.442Z,96008.38
2022-09-25T11:03:49.358Z,96001.16
2022-09-25T11:06:21.984Z,96005.66
2022-09-25T11:09:04.529Z,96013.13
2022-09-25T11:11:34.391Z,96007.41
2022-09-25T11:14:06.402Z,96006.09
2022-09-25T11:16:51.580Z,96006.34
2022-09-25T11:19:26.921Z,95999.81
2022-09-25T11:22:02.752Z,95994.53
2022-09-25T11:24:43.298Z,95986.63
2022-09-25T11:27:15.828Z,95996.91
2022-09-25T11:29:54.960Z,95996.63
2022-09-25T11:32:32.750Z,96001.97
2022-09-25T11:35:26.553Z,95996.19
2022-09-25T11:38:05.205Z,96001.66
2022-09-25T11:40:58.486Z,95998.69
2022-09-25T11:43:39.704Z,95988.47
2022-09-25T11:46:24.214Z,95990.53
2022-09-25T11:49:11.392Z,95990.91
2022-09-25T11:52:06.094Z,95990.16
2022-09-25T11:54:49.316Z,95996.53
2022-09-25T11:57:22.983Z,95991.81
2022-09-25T12:00:06.556Z,95999.25
2022-09-25T12:02:50.305Z,95992.91
2022-09-25T12:05:34.339Z,95995.94
2022-09-25T12:08:22.456Z,95977.97
2022-09-25T12:10:58.643Z,95976.66
2022-09-25T12:13:42.243Z,95968.72
2022-09-25T12:16:19.651Z,95967.88
2022-09-25T12:19:26.528Z,95954.16
2022-09-25T12:22:03.226Z,95959.28
2022-09-25T12:24:44.628Z,95951.13
2022-09-25T12:27:21.504Z,95951.25
2022-09-25T12:30:06.811Z,95953.88
2022-09-25T12:32:54.678Z,95950.94
2022-09-25T12:35:36.227Z,95943.88
2022-09-25T12:38:14.102Z,95934.50
2022-09-25T12:40:47.353Z,95939.28
2022-09-25T12:43:24.483Z,95937.94
2022-09-25T12:46:00.235Z,95933.28
2022-09-25T12:48:37.837Z,95935.13
2022-09-25T12:51:13.135Z,95924.81
2022-09-25T12:53:49.009Z,95932.13
2022-09-25T12:56:24.244Z,95925.50
2022-09-25T12:59:03.714Z,95923.22
2022-09-25T13:01:41.545Z,95917.75
2022-09-25T13:04:24.231Z,95921.81
2022-09-25T13:06:59.713Z,95911.75
2022-09-25T13:09:36.748Z,95921.59
2022-09-25T13:12:09.715Z,95914.50
2022-09-25T13:14:45.922Z,95911.66
2022-09-25T13:17:15.910Z,95913.13
2022-09-25T13:19:46.863Z,95910.00
2022-09-25T13:22:21.245Z,95915.06
2022-09-25T13:24:57.651Z,95915.94
2022-09-25T13:27:34.040Z,95904.13
2022-09-25T13:30:06.681Z,95912.56
2022-09-25T13:32:38.683Z,95913.34
2022-09-25T13:35:23.012Z,95903.34
2022-09-25T13:37:54.963Z,95888.41
2022-09-25T13:40:43.898Z,95896.13
2022-09-25T13:43:22.081Z,95894.19
2022-09-25T13:46:24.571Z,95891.50
2022-09-25T13:48:56.024Z,95894.78
2022-09-25T13:51:34.932Z,95897.19
2022-09-25T13:54:23.796Z,95894.44
2022-09-25T13:56:54.230Z,95893.91
2022-09-25T13:59:37.594Z,95904.25
2022-09-25T14:02:38.464Z,95891.97
2022-09-25T14:05:07.520Z,95888.59
2022-09-25T14:07:37.225Z,95884.50
2022-09-25T14:10:12.907Z,95890.72
2022-09-25T14:12:48.362Z,95885.25
2022-09-25T14:15:25.456Z,95901.91
2022-09-25T14:17:56.426Z,95893.41
2022-09-25T14:20:35.793Z,95889.91
2022-09-25T14:23:07.991Z,95893.88
2022-09-25T14:25:43.091Z,95896.38
2022-09-25T14:28:23.041Z,95889.53
2022-09-25T14:31:19.344Z,95899.59
2022-09-25T14:34:13.819Z,95897.69
2022-09-25T14:36:54.502Z,95893.53
2022-09-25T14:39:30.279Z,95882.44
2022-09-25T14:42:21.732Z,95883.78
2022-09-25T14:45:15.484Z,95889.31
2022-09-25T14:47:49.111Z,95880.84
2022-09-25T14:50:22.641Z,95882.38
2022-09-25T14:52:55.049Z,95877.84
2022-09-25T14:55:25.223Z,95883.22
2022-09-25T14:57:54.437Z,95877.25
2022-09-25T15:00:26.040Z,95869.97
2022-09-25T15:02:56.316Z,95864.31
2022-09-25T15:05:35.584Z,95875.16
2022-09-25T15:08:20.510Z,95873.53
2022-09-25T15:10:49.335Z,95867.19
2022-09-25T15:13:20.321Z,95865.00
2022-09-25T15:16:12.597Z,95855.22
2022-09-25T15:18:43.300Z,95861.78
2022-09-25T15:21:26.770Z,95863.31
2022-09-25T15:23:58.128Z,95857.63
2022-09-25T15:26:28.558Z,95861.66
2022-09-25T15:28:57.109Z,95858.94
2022-09-25T15:31:27.715Z,95864.88
2022-09-25T15:34:04.798Z,95860.88
2022-09-25T15:36:35.231Z,95855.75
2022-09-25T15:39:14.757Z,95864.66
2022-09-25T15:41:44.007Z,95854.16
2022-09-25T15:44:15.402Z,95854.13
2022-09-25T15:47:08.534Z,95852.88
2022-09-25T15:49:44.079Z,95852.72
2022-09-25T15:52:20.686Z,95854.38
2022-09-25T15:54:49.447Z,95851.69
2022-09-25T15:57:26.530Z,95854.91
2022-09-25T16:00:13.647Z,95852.59
2022-09-25T16:03:08.110Z,95853.13
2022-09-25T16:05:38.532Z,95852.50
2022-09-25T16:08:29.599Z,95856.00
2022-09-25T16:11:08.374Z,95860.06
2022-09-25T16:13:40.975Z,95850.53
2022-09-25T16:16:19.598Z,95857.88
2022-09-25T16:18:51.122Z,95862.38
2022-09-25T16:21:23.853Z,95859.81
2022-09-25T16:23:56.135Z,95859.25
2022-09-25T16:26:32.735Z,95862.53
2022-09-25T16:29:05.928Z,95868.53
2022-09-25T16:31:36.725Z,95865.84
2022-09-25T16:34:11.049Z,95871.59
2022-09-25T16:36:43.754Z,95862.47
2022-09-25T16:39:37.464Z,95869.50
2022-09-25T16:42:30.776Z,95866.97
2022-09-25T16:45:15.239Z,95864.38
2022-09-25T16:47:49.268Z,95866.19
2022-09-25T16:50:21.728Z,95872.69
2022-09-25T16:52:50.885Z,95862.19
2022-09-25T16:55:22.964Z,95867.47
2022-09-25T16:57:54.163Z,95864.59
2022-09-25T17:00:26.013Z,95867.75
2022-09-25T17:02:55.347Z,95871.38
2022-09-25T17:05:27.620Z,95868.22
2022-09-25T17:10:51.070Z,95869.03
2022-09-25T17:16:17.707Z,95866.19
2022-09-25T17:18:46.835Z,95873.03
2022-09-25T17:21:19.638Z,95873.91
2022-09-25T17:23:48.688Z,95869.63
2022-09-25T17:26:20.483Z,95872.16
2022-09-25T17:28:49.986Z,95885.91
2022-09-25T17:31:21.218Z,95876.69
2022-09-25T17:33:52.361Z,95882.78
2022-09-25T17:36:22.158Z,95872.22
2022-09-25T17:38:51.462Z,95869.31
2022-09-25T17:41:23.005Z,95873.78
2022-09-25T17:43:52.630Z,95874.34
2022-09-25T17:46:22.697Z,95870.28
2022-09-25T17:48:54.468Z,95866.22
2022-09-25T17:51:27.697Z,95869.16
2022-09-25T17:53:56.927Z,95862.19
2022-09-25T17:56:28.546Z,95867.19
2022-09-25T17:58:57.755Z,95875.69
2022-09-25T18:01:33.195Z,95881.44
2022-09-25T18:04:19.030Z,95889.09
2022-09-25T18:06:48.732Z,95887.78
2022-09-25T18:09:17.127Z,95880.19
2022-09-25T18:11:46.530Z,95893.22
2022-09-25T18:14:17.650Z,95889.94
2022-09-25T18:16:46.792Z,95890.28
2022-09-25T18:19:35.196Z,95870.78
2022-09-25T18:22:25.220Z,95900.16
2022-09-25T18:24:57.007Z,95890.38
2022-09-25T18:27:27.554Z,95893.88
2022-09-25T18:29:56.879Z,95889.81
2022-09-25T18:32:26.087Z,95900.25
2022-09-25T18:34:54.395Z,95898.31
2022-09-25T18:37:25.410Z,95902.09
2022-09-25T18:39:53.681Z,95902.91
2022-09-25T18:42:23.790Z,95905.94
2022-09-25T18:44:53.199Z,95901.56
2022-09-25T18:47:22.707Z,95900.28
2022-09-25T18:49:51.631Z,95905.50
2022-09-25T18:52:21.672Z,95901.19
2022-09-25T18:54:51.311Z,95898.25
2022-09-25T18:57:22.201Z,95896.06
2022-09-25T18:59:51.022Z,95899.88
2022-09-25T19:02:21.283Z,95904.53
2022-09-25T19:04:52.578Z,95899.66
2022-09-25T19:07:20.870Z,95906.44
2022-09-25T19:09:53.315Z,95908.66
2022-09-25T19:12:22.470Z,95913.03
2022-09-25T19:14:51.154Z,95914.41
2022-09-25T19:17:20.555Z,95916.09
2022-09-25T19:19:49.115Z,95907.06
2022-09-25T19:22:21.008Z,95915.56
2022-09-25T19:24:50.651Z,95913.13
2022-09-25T19:27:21.766Z,95919.41
2022-09-25T19:29:50.515Z,95920.50
2022-09-25T19:32:21.906Z,95919.16
2022-09-25T19:34:52.438Z,95918.59
2022-09-25T19:37:24.024Z,95917.78
2022-09-25T19:40:10.779Z,95914.78
2022-09-25T19:42:40.877Z,95918.44
2022-09-25T19:45:10.913Z,95915.69
2022-09-25T19:47:39.217Z,95920.78
2022-09-25T19:50:08.828Z,95922.91
2022-09-25T19:52:38.276Z,95930.56
2022-09-25T19:55:07.836Z,95922.66
2022-09-25T19:57:36.767Z,95931.13
2022-09-25T20:00:09.362Z,95931.13
2022-09-25T20:02:39.437Z,95927.88
2022-09-25T20:05:10.413Z,95928.94
2022-09-25T20:07:40.591Z,95935.16
2022-09-25T20:10:10.123Z,95935.94
2022-09-25T20:12:38.568Z,95934.84
2022-09-25T20:18:22.187Z,95929.88
2022-09-25T20:20:50.510Z,95923.88
2022-09-25T20:23:22.798Z,95927.13
2022-09-25T20:25:51.704Z,95927.34
2022-09-25T20:28:20.059Z,95930.06
2022-09-25T20:30:50.155Z,95926.53
2022-09-25T20:33:18.546Z,95924.34
2022-09-25T20:35:47.473Z,95923.28
2022-09-25T20:38:15.830Z,95927.69
2022-09-25T20:40:44.665Z,95927.56
2022-09-25T20:43:13.279Z,95924.34
2022-09-25T20:45:41.573Z,95927.06
2022-09-25T20:48:11.897Z,95934.97
2022-09-25T20:50:40.230Z,95927.06
2022-09-25T20:53:08.974Z,95931.69
2022-09-25T20:55:40.286Z,95922.75
2022-09-25T20:58:08.971Z,95920.84
2022-09-25T21:00:37.810Z,95917.84
2022-09-25T21:03:06.267Z,95917.63
2022-09-25T21:05:39.804Z,95917.06
2022-09-25T21:08:08.980Z,95918.75
2022-09-25T21:10:40.305Z,95917.97
2022-09-25T21:13:09.375Z,95916.88
2022-09-25T21:15:37.675Z,95912.53
2022-09-25T21:18:07.449Z,95916.66
2022-09-25T21:20:36.641Z,95916.66
2022-09-25T21:23:06.666Z,95919.16
2022-09-25T21:25:35.391Z,95910.75
2022-09-25T21:28:04.410Z,95903.38
2022-09-25T21:30:33.807Z,95915.13
2022-09-25T21:33:02.171Z,95914.28
2022-09-25T21:35:31.720Z,95906.94
2022-09-25T21:38:00.045Z,95905.28
2022-09-25T21:40:30.482Z,95903.38
2022-09-25T21:42:58.850Z,95896.56
2022-09-25T21:45:27.519Z,95902.84
2022-09-25T21:47:56.695Z,95897.09
2022-09-25T21:50:25.123Z,95905.06
2022-09-25T21:52:55.327Z,95894.72
2022-09-25T21:55:24.374Z,95903.72
2022-09-25T21:57:54.068Z,95897.16
2022-09-25T22:00:22.982Z,95898.56
2022-09-25T22:02:51.760Z,95897.75
2022-09-25T22:05:21.917Z,95898.56
2022-09-25T22:07:50.580Z,95898.56
2022-09-25T22:10:19.323Z,95897.22
2022-09-25T22:12:47.623Z,95890.41
2022-09-25T22:15:18.414Z,95908.16
2022-09-25T22:17:47.220Z,95894.81
2022-09-25T22:20:16.058Z,95901.63
2022-09-25T22:22:44.616Z,95899.47
2022-09-25T22:25:13.351Z,95902.19
2022-09-25T22:27:42.040Z,95904.13
2022-09-25T22:30:11.959Z,95906.88
2022-09-25T22:32:42.334Z,95907.16
2022-09-25T22:35:10.642Z,95903.91
2022-09-25T22:37:39.750Z,95898.69
2022-09-25T22:40:08.909Z,95897.38
2022-09-25T22:42:38.004Z,95903.38
2022-09-25T22:45:07.024Z,95900.41
2022-09-25T22:47:36.395Z,95897.44
2022-09-25T22:50:07.302Z,95888.16
2022-09-25T22:52:36.506Z,95889.50
2022-09-25T22:55:05.245Z,95895.53
2022-09-25T22:57:39.227Z,95893.59
2022-09-25T23:00:09.853Z,95891.41
2022-09-25T23:02:38.555Z,95891.72
2022-09-25T23:05:09.628Z,95901.28
2022-09-25T23:07:38.021Z,95892.28
2022-09-25T23:10:08.328Z,95900.75
2022-09-25T23:12:37.212Z,95890.16
2022-09-25T23:15:06.652Z,95890.44
2022-09-25T23:17:34.967Z,95881.19
2022-09-25T23:20:04.137Z,95886.63
2022-09-25T23:22:34.292Z,95884.47
2022-09-25T23:25:02.606Z,95888.81
2022-09-25T23:27:31.801Z,95882.84
2022-09-25T23:30:00.221Z,95883.66
2022-09-25T23:32:29.543Z,95878.75
2022-09-25T23:34:57.858Z,95883.38
2022-09-25T23:37:26.905Z,95873.59
2022-09-25T23:39:57.162Z,95871.44
2022-09-25T23:42:25.521Z,95869.25
2022-09-25T23:44:54.583Z,95861.94
2022-09-25T23:47:24.055Z,95858.94
2022-09-25T23:49:53.049Z,95864.38
2022-09-25T23:52:21.357Z,95873.94
2022-09-25T23:54:50.567Z,95865.78
2022-09-25T23:57:20.255Z,95868.78
2022-09-25T23:59:49.557Z,95862.25
